Time;durP1;ratioP1;P1;durP2;ratioP2;P2;SDS_P1;SDS_P2;PMS_P1;PMS_P2;Temp;Humidity;BMP_temperature;BMP_pressure;BME280_temperature;BME280_humidity;BME280_pressure;Samples;Min_cycle;Max_cycle;Signal;HPM_P1;HPM_P2
2023/08/05 00:00:37;;;;;;;6.60;4.97;;;;;;;;;;5039398;28;20542;-80
2023/08/05 00:03:03;;;;;;;7.53;6.00;;;;;;;;;;5037170;28;20886;-81
2023/08/05 00:05:30;;;;;;;5.30;4.80;;;;;;;;;;5035960;28;20453;-81
2023/08/05 00:07:56;;;;;;;7.03;5.87;;;;;;;;;;5038831;28;20485;-81
2023/08/05 00:10:23;;;;;;;8.50;6.90;;;;;;;;;;5039539;28;20449;-81
2023/08/05 00:12:49;;;;;;;6.13;5.53;;;;;;;;;;5039906;28;20933;-81
2023/08/05 00:15:16;;;;;;;6.53;5.00;;;;;;;;;;5040602;28;20466;-80
2023/08/05 00:17:44;;;;;;;6.87;5.70;;;;;;;;;;5032288;28;20485;-81
2023/08/05 00:20:11;;;;;;;5.87;5.30;;;;;;;;;;5040712;28;20453;-81
2023/08/05 00:22:38;;;;;;;6.63;5.80;;;;;;;;;;5035079;28;20480;-79
2023/08/05 00:25:04;;;;;;;8.80;6.50;;;;;;;;;;5040636;28;20529;-79
2023/08/05 00:27:31;;;;;;;6.40;5.73;;;;;;;;;;5041000;28;20476;-79
2023/08/05 00:29:57;;;;;;;6.23;5.40;;;;;;;;;;5040848;28;20490;-81
2023/08/05 00:32:24;;;;;;;8.27;5.43;;;;;;;;;;5037602;28;20462;-81
2023/08/05 00:34:51;;;;;;;6.70;5.53;;;;;;;;;;5040511;28;20488;-81
2023/08/05 00:37:18;;;;;;;8.20;6.10;;;;;;;;;;5040021;28;20485;-81
2023/08/05 00:39:44;;;;;;;7.97;5.97;;;;;;;;;;5031141;28;20466;-81
2023/08/05 00:42:10;;;;;;;8.40;6.53;;;;;;;;;;5040428;28;20477;-82
2023/08/05 00:44:37;;;;;;;10.77;5.87;;;;;;;;;;5040002;28;20450;-83
2023/08/05 00:47:03;;;;;;;6.60;6.00;;;;;;;;;;5040227;28;20449;-82
2023/08/05 00:49:30;;;;;;;7.43;5.63;;;;;;;;;;5040133;28;20481;-81
2023/08/05 00:51:58;;;;;;;9.23;6.23;;;;;;;;;;5041179;28;20500;-83
2023/08/05 00:54:25;;;;;;;8.60;5.93;;;;;;;;;;5044105;28;20466;-82
2023/08/05 00:56:51;;;;;;;6.13;5.53;;;;;;;;;;5044167;28;20488;-82
2023/08/05 00:59:18;;;;;;;8.53;6.27;;;;;;;;;;5043613;28;20561;-82
2023/08/05 01:01:44;;;;;;;9.57;6.83;;;;;;;;;;5043517;28;20485;-82
2023/08/05 01:04:11;;;;;;;8.50;6.13;;;;;;;;;;5042197;28;20460;-80
2023/08/05 01:06:37;;;;;;;7.90;6.00;;;;;;;;;;5041337;28;20947;-80
2023/08/05 01:09:05;;;;;;;7.67;6.37;;;;;;;;;;5043718;28;20520;-80
2023/08/05 01:11:31;;;;;;;10.73;6.67;;;;;;;;;;5043364;28;20441;-80
2023/08/05 01:13:58;;;;;;;7.30;6.60;;;;;;;;;;5043669;28;20493;-80
2023/08/05 01:16:24;;;;;;;7.87;6.40;;;;;;;;;;5041303;28;20498;-80
2023/08/05 01:18:51;;;;;;;9.73;8.10;;;;;;;;;;5042132;28;20454;-80
2023/08/05 01:21:21;;;;;;;8.43;7.20;;;;;;;;;;5043147;28;21031;-80
2023/08/05 01:23:51;;;;;;;9.30;6.47;;;;;;;;;;5038496;28;20454;-79
2023/08/05 01:26:20;;;;;;;10.50;6.70;;;;;;;;;;5043624;28;21009;-80
2023/08/05 01:28:46;;;;;;;12.63;6.60;;;;;;;;;;5042230;28;20492;-81
2023/08/05 01:31:14;;;;;;;9.67;6.50;;;;;;;;;;5042809;28;20485;-81
2023/08/05 01:33:40;;;;;;;8.47;7.67;;;;;;;;;;5043401;28;20457;-80
2023/08/05 01:36:07;;;;;;;9.20;6.57;;;;;;;;;;5036204;28;20862;-81
2023/08/05 01:38:33;;;;;;;13.03;7.30;;;;;;;;;;5043111;28;20465;-81
2023/08/05 01:40:59;;;;;;;9.33;8.33;;;;;;;;;;5036543;28;20511;-78
2023/08/05 01:43:28;;;;;;;11.50;7.60;;;;;;;;;;5031494;28;20518;-81
2023/08/05 01:45:54;;;;;;;8.50;7.60;;;;;;;;;;5038568;28;20497;-77
2023/08/05 01:48:20;;;;;;;9.90;7.80;;;;;;;;;;5033950;28;21207;-80
2023/08/05 01:50:47;;;;;;;11.40;7.47;;;;;;;;;;5037348;28;20482;-80
2023/08/05 01:53:13;;;;;;;10.90;7.97;;;;;;;;;;5040671;28;20464;-80
2023/08/05 01:55:40;;;;;;;9.03;7.77;;;;;;;;;;5042110;28;20497;-80
2023/08/05 01:58:06;;;;;;;9.70;7.63;;;;;;;;;;5042452;28;21481;-81
2023/08/05 02:00:34;;;;;;;9.33;7.63;;;;;;;;;;5040188;28;20462;-80
2023/08/05 02:03:00;;;;;;;8.93;7.10;;;;;;;;;;5040461;28;21327;-79
2023/08/05 02:05:27;;;;;;;12.57;7.20;;;;;;;;;;5038272;28;20521;-81
2023/08/05 02:07:53;;;;;;;9.80;7.73;;;;;;;;;;5042820;28;20450;-81
2023/08/05 02:10:19;;;;;;;8.50;7.03;;;;;;;;;;5042301;28;20457;-81
2023/08/05 02:12:46;;;;;;;8.33;6.80;;;;;;;;;;5042268;28;20856;-81
2023/08/05 02:15:12;;;;;;;8.60;6.80;;;;;;;;;;5037466;28;20464;-81
2023/08/05 02:17:40;;;;;;;7.67;6.63;;;;;;;;;;5038012;28;20562;-81
2023/08/05 02:20:08;;;;;;;7.50;6.63;;;;;;;;;;5039645;28;20501;-80
2023/08/05 02:22:34;;;;;;;7.17;6.50;;;;;;;;;;5040394;28;20484;-81
2023/08/05 02:25:00;;;;;;;7.77;6.80;;;;;;;;;;5037166;28;20478;-81
2023/08/05 02:27:27;;;;;;;13.20;7.27;;;;;;;;;;5036296;28;20485;-81
2023/08/05 02:29:53;;;;;;;11.07;8.10;;;;;;;;;;5042888;28;20540;-81
2023/08/05 02:32:19;;;;;;;9.10;7.13;;;;;;;;;;5043098;28;20481;-82
2023/08/05 02:34:47;;;;;;;8.87;7.97;;;;;;;;;;5042678;28;20446;-82
2023/08/05 02:37:14;;;;;;;9.93;7.10;;;;;;;;;;5042702;28;20497;-80
2023/08/05 02:39:40;;;;;;;8.67;7.80;;;;;;;;;;5042553;28;20481;-82
2023/08/05 02:42:07;;;;;;;9.83;8.17;;;;;;;;;;5042263;28;20470;-82
2023/08/05 02:44:33;;;;;;;9.23;7.63;;;;;;;;;;5040647;28;20537;-82
2023/08/05 02:46:59;;;;;;;9.93;7.60;;;;;;;;;;5041595;28;20913;-82
2023/08/05 02:49:26;;;;;;;11.43;9.00;;;;;;;;;;5042624;28;20598;-82
2023/08/05 02:51:53;;;;;;;8.13;7.33;;;;;;;;;;5042299;28;20540;-82
2023/08/05 02:54:20;;;;;;;9.77;7.87;;;;;;;;;;5034232;28;20469;-82
2023/08/05 02:56:46;;;;;;;8.57;7.13;;;;;;;;;;5041390;28;20446;-82
2023/08/05 02:59:13;;;;;;;9.10;7.30;;;;;;;;;;5042174;28;20485;-82
2023/08/05 03:01:40;;;;;;;10.10;7.57;;;;;;;;;;5041727;28;20488;-82
2023/08/05 03:04:06;;;;;;;10.00;6.87;;;;;;;;;;5038374;28;20528;-81
2023/08/05 03:06:32;;;;;;;10.37;7.40;;;;;;;;;;5041780;28;20480;-81
2023/08/05 03:09:00;;;;;;;11.90;7.30;;;;;;;;;;5039740;28;20469;-81
2023/08/05 03:11:29;;;;;;;7.87;7.00;;;;;;;;;;5041278;28;21073;-81
2023/08/05 03:13:56;;;;;;;8.73;7.20;;;;;;;;;;5033561;28;20577;-81
2023/08/05 03:16:22;;;;;;;9.27;7.77;;;;;;;;;;5039477;28;20520;-81
2023/08/05 03:18:49;;;;;;;12.90;8.20;;;;;;;;;;5040175;28;20458;-81
2023/08/05 03:21:15;;;;;;;8.60;7.37;;;;;;;;;;5040797;28;20531;-81
2023/08/05 03:23:41;;;;;;;7.70;6.87;;;;;;;;;;5041596;28;20481;-81
2023/08/05 03:26:09;;;;;;;14.23;7.40;;;;;;;;;;5039328;28;20529;-81
2023/08/05 03:28:35;;;;;;;11.53;7.87;;;;;;;;;;5040799;28;20526;-78
2023/08/05 03:31:02;;;;;;;13.07;7.63;;;;;;;;;;5039260;28;20465;-81
2023/08/05 03:33:28;;;;;;;14.27;7.93;;;;;;;;;;5040374;28;20466;-81
2023/08/05 03:35:55;;;;;;;10.20;7.33;;;;;;;;;;5038274;28;20458;-81
2023/08/05 03:38:21;;;;;;;11.33;7.07;;;;;;;;;;5041028;28;20455;-79
2023/08/05 03:40:47;;;;;;;9.10;7.50;;;;;;;;;;5037746;28;20525;-81
2023/08/05 03:43:15;;;;;;;8.23;6.83;;;;;;;;;;5040471;28;20484;-81
2023/08/05 03:45:49;;;;;;;9.60;8.07;;;;;;;;;;5040929;28;20451;-81
2023/08/05 03:48:15;;;;;;;10.40;6.80;;;;;;;;;;5041139;28;20557;-81
2023/08/05 03:50:41;;;;;;;12.00;7.43;;;;;;;;;;5033583;28;20461;-81
2023/08/05 03:53:08;;;;;;;9.97;6.83;;;;;;;;;;5040632;28;20453;-81
2023/08/05 03:55:34;;;;;;;7.07;6.37;;;;;;;;;;5040532;28;20492;-82
2023/08/05 03:58:01;;;;;;;9.40;7.10;;;;;;;;;;5038506;28;20526;-82
2023/08/05 04:00:28;;;;;;;8.73;7.00;;;;;;;;;;5039034;28;20550;-81
2023/08/05 04:02:55;;;;;;;9.23;6.77;;;;;;;;;;5039788;28;20557;-81
2023/08/05 04:05:21;;;;;;;9.17;6.83;;;;;;;;;;5039323;28;20488;-81
2023/08/05 04:07:47;;;;;;;9.43;6.73;;;;;;;;;;5039998;28;20906;-82
2023/08/05 04:10:14;;;;;;;11.37;7.77;;;;;;;;;;5036760;28;20456;-82
2023/08/05 04:12:40;;;;;;;11.17;8.43;;;;;;;;;;5037428;28;20539;-82
2023/08/05 04:15:08;;;;;;;11.00;7.53;;;;;;;;;;5041526;28;20453;-82
2023/08/05 04:17:35;;;;;;;9.07;7.50;;;;;;;;;;5040724;28;20518;-82
2023/08/05 04:20:02;;;;;;;9.80;7.10;;;;;;;;;;5041070;28;20541;-82
2023/08/05 04:22:30;;;;;;;10.60;7.47;;;;;;;;;;5034786;28;20473;-81
2023/08/05 04:24:57;;;;;;;9.40;6.53;;;;;;;;;;5037333;28;20457;-80
2023/08/05 04:27:24;;;;;;;9.07;7.60;;;;;;;;;;5041982;28;20462;-81
2023/08/05 04:29:51;;;;;;;10.70;6.50;;;;;;;;;;5031811;28;20454;-82
2023/08/05 04:32:17;;;;;;;11.47;8.20;;;;;;;;;;5035733;28;20460;-81
2023/08/05 04:34:45;;;;;;;10.13;7.77;;;;;;;;;;5045132;28;21303;-82
2023/08/05 04:37:18;;;;;;;9.93;7.20;;;;;;;;;;5044782;28;20453;-81
2023/08/05 04:39:44;;;;;;;10.23;8.00;;;;;;;;;;5041439;28;20480;-81
2023/08/05 04:42:11;;;;;;;12.27;7.10;;;;;;;;;;5044785;28;20474;-81
2023/08/05 04:44:39;;;;;;;8.00;7.00;;;;;;;;;;5044292;28;20450;-82
2023/08/05 04:47:06;;;;;;;9.73;7.40;;;;;;;;;;5038464;28;20867;-82
2023/08/05 04:49:32;;;;;;;7.70;6.70;;;;;;;;;;5044566;28;20534;-81
2023/08/05 04:52:02;;;;;;;11.27;7.13;;;;;;;;;;5044502;28;20453;-81
2023/08/05 04:54:28;;;;;;;9.73;6.40;;;;;;;;;;5042213;28;20470;-81
2023/08/05 04:56:55;;;;;;;7.23;6.10;;;;;;;;;;5042798;28;20553;-79
2023/08/05 04:59:21;;;;;;;8.73;7.47;;;;;;;;;;5043913;28;20779;-81
2023/08/05 05:01:47;;;;;;;10.67;7.60;;;;;;;;;;5044085;28;20489;-82
2023/08/05 05:04:14;;;;;;;7.60;6.77;;;;;;;;;;5044410;28;20925;-81
2023/08/05 05:06:40;;;;;;;8.27;5.77;;;;;;;;;;5044188;28;20468;-81
2023/08/05 05:09:08;;;;;;;13.43;7.40;;;;;;;;;;5044241;28;20556;-81
2023/08/05 05:11:34;;;;;;;9.90;7.47;;;;;;;;;;5041314;28;20454;-82
2023/08/05 05:14:00;;;;;;;10.93;7.23;;;;;;;;;;5041794;28;20481;-81
2023/08/05 05:16:27;;;;;;;8.27;6.93;;;;;;;;;;5042852;28;20466;-83
2023/08/05 05:18:53;;;;;;;12.43;7.47;;;;;;;;;;5040540;28;20460;-81
2023/08/05 05:21:20;;;;;;;11.90;7.70;;;;;;;;;;5043716;28;20524;-81
2023/08/05 05:23:46;;;;;;;13.13;7.70;;;;;;;;;;5041846;28;20561;-81
2023/08/05 05:26:14;;;;;;;13.57;8.13;;;;;;;;;;5043653;28;20445;-81
2023/08/05 05:28:40;;;;;;;8.50;7.70;;;;;;;;;;5041106;28;20458;-80
2023/08/05 05:31:06;;;;;;;11.17;7.30;;;;;;;;;;5041975;28;20521;-82
2023/08/05 05:33:33;;;;;;;9.23;7.20;;;;;;;;;;5042370;28;20521;-81
2023/08/05 05:35:59;;;;;;;11.23;7.00;;;;;;;;;;5043833;28;20522;-81
2023/08/05 05:38:25;;;;;;;10.10;6.67;;;;;;;;;;5043530;28;21016;-81
2023/08/05 05:40:52;;;;;;;9.27;6.73;;;;;;;;;;5040072;28;20480;-81
2023/08/05 05:43:20;;;;;;;11.93;6.87;;;;;;;;;;5039689;28;20581;-81
2023/08/05 05:45:48;;;;;;;8.50;6.50;;;;;;;;;;5032567;28;20560;-84
2023/08/05 05:48:14;;;;;;;12.07;6.67;;;;;;;;;;5036398;28;20469;-80
2023/08/05 05:50:42;;;;;;;15.33;8.13;;;;;;;;;;5037786;28;20494;-80
2023/08/05 05:53:13;;;;;;;9.23;6.67;;;;;;;;;;5039377;28;20734;-80
2023/08/05 05:55:40;;;;;;;8.93;7.00;;;;;;;;;;5041400;28;20469;-80
2023/08/05 05:58:07;;;;;;;9.03;6.57;;;;;;;;;;5042911;28;20903;-79
2023/08/05 06:00:37;;;;;;;9.63;6.00;;;;;;;;;;5041719;28;20525;-79
2023/08/05 06:03:03;;;;;;;8.33;6.27;;;;;;;;;;5041018;28;20495;-80
2023/08/05 06:05:30;;;;;;;10.10;5.90;;;;;;;;;;5037290;28;20450;-79
2023/08/05 06:07:57;;;;;;;9.33;6.00;;;;;;;;;;5040749;28;20522;-77
2023/08/05 06:10:24;;;;;;;10.93;5.90;;;;;;;;;;5042652;28;20446;-79
2023/08/05 06:12:50;;;;;;;10.10;6.77;;;;;;;;;;5042106;28;20481;-80
2023/08/05 06:15:16;;;;;;;9.53;7.80;;;;;;;;;;5033519;28;20543;-79
2023/08/05 06:17:45;;;;;;;8.70;7.07;;;;;;;;;;5040935;28;20467;-79
2023/08/05 06:20:12;;;;;;;9.90;7.30;;;;;;;;;;5042437;28;20466;-80
2023/08/05 06:22:39;;;;;;;10.10;6.97;;;;;;;;;;5036758;28;20479;-79
2023/08/05 06:25:05;;;;;;;10.63;6.90;;;;;;;;;;5040744;28;20450;-79
2023/08/05 06:27:32;;;;;;;10.87;7.30;;;;;;;;;;5042471;28;20469;-80
2023/08/05 06:29:58;;;;;;;9.83;6.40;;;;;;;;;;5039781;28;20446;-80
2023/08/05 06:32:24;;;;;;;9.50;7.23;;;;;;;;;;5035112;28;20490;-80
2023/08/05 06:34:53;;;;;;;16.83;7.73;;;;;;;;;;5042251;28;20493;-80
2023/08/05 06:37:20;;;;;;;10.93;6.47;;;;;;;;;;5037452;28;20506;-80
2023/08/05 06:39:46;;;;;;;10.50;6.37;;;;;;;;;;5037481;28;20534;-80
2023/08/05 06:42:13;;;;;;;9.23;6.23;;;;;;;;;;5037170;28;20497;-80
2023/08/05 06:44:41;;;;;;;9.40;6.53;;;;;;;;;;5041741;28;20979;-80
2023/08/05 06:47:08;;;;;;;8.90;5.50;;;;;;;;;;5041628;28;20966;-79
2023/08/05 06:49:35;;;;;;;8.93;6.33;;;;;;;;;;5041354;28;20465;-78
2023/08/05 06:52:04;;;;;;;6.97;5.27;;;;;;;;;;5050674;28;20457;-78
2023/08/05 06:54:30;;;;;;;13.50;5.87;;;;;;;;;;5035269;28;20460;-79
2023/08/05 06:56:57;;;;;;;7.57;5.60;;;;;;;;;;5035858;28;20512;-79
2023/08/05 06:59:23;;;;;;;5.80;5.10;;;;;;;;;;5040892;28;20493;-80
2023/08/05 07:01:50;;;;;;;7.27;5.30;;;;;;;;;;5038638;28;20467;-80
2023/08/05 07:04:16;;;;;;;5.60;5.03;;;;;;;;;;5040332;28;20470;-78
2023/08/05 07:06:44;;;;;;;10.57;5.37;;;;;;;;;;5040911;28;20453;-79
2023/08/05 07:09:11;;;;;;;9.30;4.77;;;;;;;;;;5041315;28;21004;-80
2023/08/05 07:11:38;;;;;;;6.90;6.20;;;;;;;;;;5040883;28;20482;-80
2023/08/05 07:14:04;;;;;;;7.93;5.23;;;;;;;;;;5040902;28;20473;-78
2023/08/05 07:16:31;;;;;;;7.23;5.50;;;;;;;;;;5039789;28;20485;-77
2023/08/05 07:18:57;;;;;;;8.07;5.10;;;;;;;;;;5040698;28;20445;-77
2023/08/05 07:21:24;;;;;;;7.90;5.03;;;;;;;;;;5039030;28;20466;-78
2023/08/05 07:23:50;;;;;;;9.07;5.60;;;;;;;;;;5037377;28;20485;-78
2023/08/05 07:26:18;;;;;;;10.23;5.60;;;;;;;;;;5033364;28;20466;-78
2023/08/05 07:28:44;;;;;;;7.03;5.50;;;;;;;;;;5040837;28;20548;-77
2023/08/05 07:31:11;;;;;;;10.50;6.53;;;;;;;;;;5039749;28;20588;-77
2023/08/05 07:33:37;;;;;;;9.77;5.37;;;;;;;;;;5039225;28;20481;-77
2023/08/05 07:36:10;;;;;;;12.13;6.17;;;;;;;;;;5034755;28;20541;-77
2023/08/05 07:38:39;;;;;;;6.47;5.50;;;;;;;;;;5035591;28;20533;-78
2023/08/05 07:41:05;;;;;;;7.93;5.50;;;;;;;;;;5039409;28;20461;-79
2023/08/05 07:43:35;;;;;;;10.77;6.13;;;;;;;;;;5039226;28;20928;-77
2023/08/05 07:46:02;;;;;;;11.33;5.70;;;;;;;;;;5040046;28;20488;-79
2023/08/05 07:48:32;;;;;;;10.70;5.80;;;;;;;;;;5039806;28;20472;-78
2023/08/05 07:51:00;;;;;;;11.33;5.50;;;;;;;;;;5037490;28;20438;-79
2023/08/05 07:53:28;;;;;;;15.13;6.17;;;;;;;;;;5037710;28;20507;-78
2023/08/05 07:55:54;;;;;;;7.23;5.87;;;;;;;;;;5031091;28;20485;-78
2023/08/05 07:58:21;;;;;;;10.43;6.30;;;;;;;;;;5037156;28;20449;-77
2023/08/05 08:00:49;;;;;;;11.20;6.17;;;;;;;;;;5040237;28;20497;-79
2023/08/05 08:03:15;;;;;;;9.40;7.03;;;;;;;;;;5043254;28;20513;-78
2023/08/05 08:05:41;;;;;;;8.53;6.80;;;;;;;;;;5043983;28;20897;-79
2023/08/05 08:08:08;;;;;;;8.47;6.30;;;;;;;;;;5041251;28;20534;-79
2023/08/05 08:10:34;;;;;;;6.83;6.13;;;;;;;;;;5041912;28;20450;-80
2023/08/05 08:13:01;;;;;;;9.70;6.53;;;;;;;;;;5043511;28;20505;-79
2023/08/05 08:15:27;;;;;;;6.17;5.03;;;;;;;;;;5040636;28;20462;-80
2023/08/05 08:17:55;;;;;;;7.20;5.30;;;;;;;;;;5042868;28;20638;-80
2023/08/05 08:20:21;;;;;;;5.30;4.77;;;;;;;;;;5043426;28;20544;-81
2023/08/05 08:22:48;;;;;;;5.97;5.40;;;;;;;;;;5041921;28;20509;-80
2023/08/05 08:25:14;;;;;;;6.40;5.17;;;;;;;;;;5042143;28;20533;-80
2023/08/05 08:27:41;;;;;;;5.80;5.30;;;;;;;;;;5043754;28;20461;-80
2023/08/05 08:30:07;;;;;;;5.57;4.97;;;;;;;;;;5044282;28;20457;-80
2023/08/05 08:32:34;;;;;;;6.00;5.43;;;;;;;;;;5043675;28;20492;-79
2023/08/05 08:35:01;;;;;;;5.20;4.63;;;;;;;;;;5044384;28;20468;-80
2023/08/05 08:37:28;;;;;;;5.67;4.77;;;;;;;;;;5043987;28;20504;-80
2023/08/05 08:39:54;;;;;;;5.10;4.60;;;;;;;;;;5042775;28;20528;-79
2023/08/05 08:42:21;;;;;;;7.87;4.70;;;;;;;;;;5050205;28;20513;-80
2023/08/05 08:44:48;;;;;;;6.30;4.70;;;;;;;;;;5043526;28;20566;-80
2023/08/05 08:47:15;;;;;;;5.70;4.90;;;;;;;;;;5043153;28;20453;-80
2023/08/05 08:49:42;;;;;;;5.10;4.60;;;;;;;;;;5044395;28;20512;-80
2023/08/05 08:52:12;;;;;;;10.10;5.20;;;;;;;;;;5044069;28;20469;-80
2023/08/05 08:54:39;;;;;;;4.63;4.13;;;;;;;;;;5032611;28;20466;-80
2023/08/05 08:57:06;;;;;;;4.90;3.67;;;;;;;;;;5042365;28;20519;-80
2023/08/05 08:59:33;;;;;;;6.00;4.40;;;;;;;;;;5043997;28;20969;-80
2023/08/05 09:02:00;;;;;;;5.33;4.17;;;;;;;;;;5042987;28;20474;-80
2023/08/05 09:04:27;;;;;;;4.70;4.23;;;;;;;;;;5043969;28;20845;-78
2023/08/05 09:06:54;;;;;;;6.63;4.60;;;;;;;;;;5043552;28;20468;-78
2023/08/05 09:09:22;;;;;;;4.67;4.33;;;;;;;;;;5043077;28;20480;-80
2023/08/05 09:11:49;;;;;;;5.10;4.50;;;;;;;;;;5042709;28;20524;-80
2023/08/05 09:14:16;;;;;;;4.63;3.83;;;;;;;;;;5032908;28;20493;-80
2023/08/05 09:16:56;;;;;;;4.60;3.73;;;;;;;;;;5031945;28;20473;-80
2023/08/05 09:19:24;;;;;;;8.53;3.80;;;;;;;;;;5041083;28;20445;-80
2023/08/05 09:21:51;;;;;;;7.93;3.90;;;;;;;;;;5041123;28;20442;-77
2023/08/05 09:24:23;;;;;;;4.83;3.83;;;;;;;;;;5036564;28;20481;-78
2023/08/05 09:26:53;;;;;;;4.00;3.70;;;;;;;;;;5039376;28;20541;-80
2023/08/05 09:29:21;;;;;;;4.63;3.80;;;;;;;;;;5030822;28;20485;-84
2023/08/05 09:31:54;;;;;;;4.17;3.77;;;;;;;;;;5026975;28;20469;-83
2023/08/05 09:34:20;;;;;;;4.13;3.67;;;;;;;;;;5034830;28;20477;-83
2023/08/05 09:36:47;;;;;;;4.63;3.57;;;;;;;;;;5035549;28;20477;-82
2023/08/05 09:39:15;;;;;;;4.07;3.53;;;;;;;;;;5031853;28;20460;-83
2023/08/05 09:41:49;;;;;;;4.97;3.87;;;;;;;;;;5028571;28;20459;-82
2023/08/05 09:44:16;;;;;;;5.53;4.67;;;;;;;;;;5035038;28;20539;-82
2023/08/05 09:46:43;;;;;;;4.33;3.87;;;;;;;;;;5027665;28;20495;-81
2023/08/05 09:49:12;;;;;;;4.17;3.77;;;;;;;;;;5035519;28;20442;-85
2023/08/05 09:51:42;;;;;;;6.03;3.90;;;;;;;;;;5037625;28;20461;-82
2023/08/05 09:54:09;;;;;;;4.43;4.03;;;;;;;;;;5033969;28;20455;-83
2023/08/05 09:56:37;;;;;;;10.23;4.20;;;;;;;;;;5033516;28;20517;-82
2023/08/05 09:59:05;;;;;;;4.30;3.87;;;;;;;;;;5034479;28;20482;-81
2023/08/05 10:01:32;;;;;;;6.10;4.80;;;;;;;;;;5027270;28;20490;-76
2023/08/05 10:03:59;;;;;;;4.50;4.10;;;;;;;;;;5035635;28;20490;-76
2023/08/05 10:06:25;;;;;;;7.23;4.20;;;;;;;;;;5026621;28;20509;-76
2023/08/05 10:08:53;;;;;;;6.83;4.70;;;;;;;;;;5029013;28;20530;-77
2023/08/05 10:11:19;;;;;;;6.17;4.50;;;;;;;;;;5039365;28;20462;-76
2023/08/05 10:13:47;;;;;;;6.40;4.43;;;;;;;;;;5034217;28;20489;-77
2023/08/05 10:16:15;;;;;;;5.10;4.60;;;;;;;;;;5037085;28;20480;-76
2023/08/05 10:18:42;;;;;;;5.27;4.50;;;;;;;;;;5030549;28;20494;-78
2023/08/05 10:21:09;;;;;;;5.73;4.23;;;;;;;;;;5039828;28;21040;-77
2023/08/05 10:23:36;;;;;;;5.90;3.80;;;;;;;;;;5038979;28;20660;-78
2023/08/05 10:26:03;;;;;;;6.77;4.20;;;;;;;;;;5035421;28;20481;-78
2023/08/05 10:28:39;;;;;;;6.90;3.77;;;;;;;;;;5039558;28;20472;-78
2023/08/05 10:31:06;;;;;;;4.30;3.57;;;;;;;;;;5035874;28;20489;-79
2023/08/05 10:33:54;;;;;;;6.10;4.20;;;;;;;;;;5033846;28;20501;-80
2023/08/05 10:36:21;;;;;;;5.23;3.63;;;;;;;;;;5034631;28;20486;-77
2023/08/05 10:38:47;;;;;;;3.80;3.40;;;;;;;;;;5039581;28;20449;-76
2023/08/05 10:41:15;;;;;;;3.73;3.30;;;;;;;;;;5030156;28;20486;-77
2023/08/05 10:43:42;;;;;;;3.90;3.60;;;;;;;;;;5032364;28;20546;-77
2023/08/05 10:46:12;;;;;;;3.63;3.33;;;;;;;;;;5040025;28;20456;-78
2023/08/05 10:48:42;;;;;;;3.97;3.10;;;;;;;;;;5030526;28;20461;-77
2023/08/05 10:51:09;;;;;;;5.90;3.27;;;;;;;;;;5039586;28;20549;-75
2023/08/05 10:53:35;;;;;;;5.20;3.27;;;;;;;;;;5040524;28;20449;-77
2023/08/05 10:56:02;;;;;;;5.80;3.17;;;;;;;;;;5040538;28;20465;-77
2023/08/05 10:58:29;;;;;;;3.73;3.27;;;;;;;;;;5040957;28;20489;-77
2023/08/05 11:00:56;;;;;;;3.63;2.83;;;;;;;;;;5040254;28;20449;-77
2023/08/05 11:03:25;;;;;;;4.83;3.03;;;;;;;;;;5040557;28;20465;-77
2023/08/05 11:05:53;;;;;;;4.83;3.60;;;;;;;;;;5040597;28;20489;-77
2023/08/05 11:08:21;;;;;;;3.70;3.30;;;;;;;;;;5040441;28;20485;-77
2023/08/05 11:10:47;;;;;;;3.97;3.57;;;;;;;;;;5040375;28;20458;-77
2023/08/05 11:13:16;;;;;;;3.93;3.63;;;;;;;;;;5034616;28;20512;-77
2023/08/05 11:15:43;;;;;;;4.47;3.27;;;;;;;;;;5028060;28;21185;-77
2023/08/05 11:18:09;;;;;;;3.70;3.00;;;;;;;;;;5034005;28;20517;-78
2023/08/05 11:20:37;;;;;;;4.20;3.00;;;;;;;;;;5038550;28;20470;-78
2023/08/05 11:23:04;;;;;;;3.30;2.60;;;;;;;;;;5040171;28;20524;-77
2023/08/05 11:25:31;;;;;;;2.50;2.13;;;;;;;;;;5040798;28;20581;-77
2023/08/05 11:27:58;;;;;;;2.93;2.50;;;;;;;;;;5040557;28;20532;-77
2023/08/05 11:30:25;;;;;;;2.80;2.40;;;;;;;;;;5031140;28;20483;-78
2023/08/05 11:32:52;;;;;;;3.00;2.60;;;;;;;;;;5040047;28;20557;-77
2023/08/05 11:35:18;;;;;;;3.00;2.60;;;;;;;;;;5040135;28;20545;-79
2023/08/05 11:37:45;;;;;;;3.70;2.80;;;;;;;;;;5038980;28;20485;-78
2023/08/05 11:40:13;;;;;;;3.13;2.60;;;;;;;;;;5039278;28;20533;-78
2023/08/05 11:42:40;;;;;;;2.90;2.60;;;;;;;;;;5040080;28;20453;-78
2023/08/05 11:45:07;;;;;;;3.30;2.63;;;;;;;;;;5039358;28;20477;-77
2023/08/05 11:47:36;;;;;;;2.90;2.47;;;;;;;;;;5035319;28;20518;-77
2023/08/05 11:50:03;;;;;;;3.00;2.70;;;;;;;;;;5040465;28;20454;-78
2023/08/05 11:52:29;;;;;;;3.30;2.47;;;;;;;;;;5039597;28;20900;-77
2023/08/05 11:54:56;;;;;;;3.17;2.50;;;;;;;;;;5040097;28;20462;-77
2023/08/05 11:57:24;;;;;;;2.60;2.40;;;;;;;;;;5040728;28;20454;-78
2023/08/05 11:59:51;;;;;;;3.03;2.60;;;;;;;;;;5046554;28;20473;-78
2023/08/05 12:02:18;;;;;;;3.13;2.40;;;;;;;;;;5053550;28;20505;-78
2023/08/05 12:04:45;;;;;;;3.87;2.73;;;;;;;;;;5050881;28;20484;-77
2023/08/05 12:07:12;;;;;;;3.60;2.50;;;;;;;;;;5044661;28;20450;-77
2023/08/05 12:09:39;;;;;;;4.57;2.93;;;;;;;;;;5050512;28;20464;-77
2023/08/05 12:12:06;;;;;;;2.97;2.73;;;;;;;;;;5047043;28;20490;-78
2023/08/05 12:14:34;;;;;;;4.43;2.40;;;;;;;;;;5046506;28;20466;-76
2023/08/05 12:17:00;;;;;;;4.30;2.50;;;;;;;;;;5040824;28;20525;-78
2023/08/05 12:19:27;;;;;;;4.63;2.87;;;;;;;;;;5040167;28;20460;-77
2023/08/05 12:21:53;;;;;;;4.43;2.87;;;;;;;;;;5039747;28;20450;-78
2023/08/05 12:24:19;;;;;;;3.20;2.80;;;;;;;;;;5039299;28;20562;-73
2023/08/05 12:26:46;;;;;;;3.73;2.63;;;;;;;;;;5039473;28;20490;-73
2023/08/05 12:29:12;;;;;;;2.37;2.17;;;;;;;;;;5038895;28;20918;-74
2023/08/05 12:31:40;;;;;;;2.97;2.63;;;;;;;;;;5036862;28;20521;-74
2023/08/05 12:34:06;;;;;;;3.23;2.63;;;;;;;;;;5034061;28;20965;-73
2023/08/05 12:36:33;;;;;;;3.63;2.50;;;;;;;;;;5029844;28;20518;-73
2023/08/05 12:39:00;;;;;;;2.90;2.67;;;;;;;;;;5039722;28;20509;-73
2023/08/05 12:41:27;;;;;;;2.50;2.30;;;;;;;;;;5039244;28;20543;-73
2023/08/05 12:43:53;;;;;;;3.97;3.00;;;;;;;;;;5036207;28;20526;-73
2023/08/05 12:46:20;;;;;;;2.57;2.37;;;;;;;;;;5039370;28;20486;-73
2023/08/05 12:48:47;;;;;;;3.50;2.80;;;;;;;;;;5041538;28;20485;-73
2023/08/05 12:51:14;;;;;;;4.60;2.50;;;;;;;;;;5042084;28;20517;-73
2023/08/05 12:53:41;;;;;;;4.63;3.03;;;;;;;;;;5044074;28;20450;-73
2023/08/05 12:56:07;;;;;;;2.50;2.30;;;;;;;;;;5043145;28;20474;-73
2023/08/05 12:58:34;;;;;;;3.10;2.30;;;;;;;;;;5042837;28;20509;-73
2023/08/05 13:01:00;;;;;;;3.80;2.50;;;;;;;;;;5043050;28;20496;-73
2023/08/05 13:03:27;;;;;;;2.50;2.30;;;;;;;;;;5042806;28;20973;-73
2023/08/05 13:05:54;;;;;;;4.43;2.43;;;;;;;;;;5042264;28;20556;-73
2023/08/05 13:08:21;;;;;;;2.53;2.33;;;;;;;;;;5043091;28;20456;-74
2023/08/05 13:10:47;;;;;;;3.53;2.70;;;;;;;;;;5039079;28;21050;-74
2023/08/05 13:13:13;;;;;;;3.47;2.53;;;;;;;;;;5041921;28;20504;-74
2023/08/05 13:15:40;;;;;;;2.33;2.13;;;;;;;;;;5036521;28;20538;-74
2023/08/05 13:18:06;;;;;;;2.40;2.20;;;;;;;;;;5042608;28;20485;-73
2023/08/05 13:20:33;;;;;;;3.10;2.43;;;;;;;;;;5038694;28;20490;-74
2023/08/05 13:23:01;;;;;;;2.60;2.40;;;;;;;;;;5043114;28;20481;-74
2023/08/05 13:25:28;;;;;;;2.43;2.23;;;;;;;;;;5042461;28;20496;-73
2023/08/05 13:27:54;;;;;;;2.23;2.03;;;;;;;;;;5042167;28;20445;-74
2023/08/05 13:30:21;;;;;;;2.87;2.57;;;;;;;;;;5042790;28;20454;-74
2023/08/05 13:32:47;;;;;;;2.47;2.13;;;;;;;;;;5042201;28;20464;-74
2023/08/05 13:35:13;;;;;;;2.90;2.30;;;;;;;;;;5039755;28;20477;-73
2023/08/05 13:37:40;;;;;;;4.00;2.40;;;;;;;;;;5041122;28;20450;-73
2023/08/05 13:40:08;;;;;;;7.53;2.20;;;;;;;;;;5042600;28;20501;-73
2023/08/05 13:42:35;;;;;;;3.20;2.20;;;;;;;;;;5041684;28;20485;-73
2023/08/05 13:45:01;;;;;;;2.53;2.23;;;;;;;;;;5042503;28;20516;-73
2023/08/05 13:47:27;;;;;;;2.77;2.40;;;;;;;;;;5038884;28;20868;-73
2023/08/05 13:49:54;;;;;;;2.10;1.90;;;;;;;;;;5041277;28;20537;-74
2023/08/05 13:52:20;;;;;;;2.00;1.70;;;;;;;;;;5039918;28;20454;-74
2023/08/05 13:54:47;;;;;;;1.50;1.37;;;;;;;;;;5042742;28;20503;-74
2023/08/05 13:57:14;;;;;;;5.50;1.60;;;;;;;;;;5041156;28;20481;-74
2023/08/05 13:59:41;;;;;;;2.00;1.77;;;;;;;;;;5040648;28;20552;-73
2023/08/05 14:02:07;;;;;;;2.70;2.00;;;;;;;;;;5042415;28;20529;-74
2023/08/05 14:04:33;;;;;;;1.90;1.70;;;;;;;;;;5041399;28;20487;-75
2023/08/05 14:07:00;;;;;;;2.20;2.00;;;;;;;;;;5036278;28;20482;-74
2023/08/05 14:09:26;;;;;;;2.57;1.77;;;;;;;;;;5041812;28;20496;-74
2023/08/05 14:11:53;;;;;;;1.93;1.73;;;;;;;;;;5040813;28;20493;-74
2023/08/05 14:14:20;;;;;;;1.70;1.60;;;;;;;;;;5041799;28;20517;-74
2023/08/05 14:16:47;;;;;;;2.00;1.80;;;;;;;;;;5031323;28;20480;-73
2023/08/05 14:19:13;;;;;;;2.10;1.70;;;;;;;;;;5041204;28;20501;-74
2023/08/05 14:21:39;;;;;;;2.00;1.80;;;;;;;;;;5042166;28;20549;-73
2023/08/05 14:24:06;;;;;;;1.87;1.77;;;;;;;;;;5041361;28;20445;-73
2023/08/05 14:26:32;;;;;;;2.40;1.63;;;;;;;;;;5040871;28;20589;-73
2023/08/05 14:28:59;;;;;;;2.27;2.07;;;;;;;;;;5041384;28;20504;-73
2023/08/05 14:31:26;;;;;;;2.00;1.80;;;;;;;;;;5041275;28;20902;-73
2023/08/05 14:33:53;;;;;;;4.37;1.87;;;;;;;;;;5039266;28;20458;-73
2023/08/05 14:36:21;;;;;;;2.63;1.90;;;;;;;;;;5041186;28;20939;-73
2023/08/05 14:38:49;;;;;;;2.87;1.67;;;;;;;;;;5041372;28;21010;-73